Time;durP1;ratioP1;P1;durP2;ratioP2;P2;SDS_P1;SDS_P2;PMS_P1;PMS_P2;Temp;Humidity;BMP_temperature;BMP_pressure;BME280_temperature;BME280_humidity;BME280_pressure;Samples;Min_cycle;Max_cycle;Signal;HPM_P1;HPM_P2
2022/01/13 00:02:25;;;;;;;4.73;1.37;;;;;;;;;;5156728;27;20475;-78
2022/01/13 00:04:50;;;;;;;0.77;0.77;;;4.20;99.90;;;;;;5157088;27;20371;-78
2022/01/13 00:07:16;;;;;;;3.28;3.03;;;4.20;99.90;;;;;;5156908;27;20284;-77
2022/01/13 00:09:43;;;;;;;4.88;2.72;;;4.20;99.90;;;;;;5137824;27;20085;-78
2022/01/13 00:12:10;;;;;;;6.50;1.38;;;4.20;99.90;;;;;;5156807;27;20443;-78
2022/01/13 00:22:13;;;;;;;1.30;1.20;;;4.20;99.90;;;;;;5156351;27;20513;-77
2022/01/13 00:24:39;;;;;;;0.50;0.50;;;4.20;99.90;;;;;;5138320;27;20045;-76
2022/01/13 00:27:10;;;;;;;0.80;0.80;;;4.20;99.90;;;;;;5121072;27;20482;-76
2022/01/13 00:29:39;;;;;;;2.50;2.35;;;4.20;99.90;;;;;;5138160;27;20050;-77
2022/01/13 00:32:06;;;;;;;3.22;2.55;;;4.20;99.90;;;;;;5138336;27;20424;-76
2022/01/13 00:34:31;;;;;;;8.93;1.80;;;4.20;99.90;;;;;;5138225;27;20039;-76
2022/01/13 00:36:58;;;;;;;3.85;3.50;;;4.30;99.90;;;;;;5138030;27;20046;-76
2022/01/13 00:39:24;;;;;;;1.40;1.30;;;4.20;99.90;;;;;;5138033;27;20047;-76
2022/01/13 00:41:49;;;;;;;3.65;2.47;;;4.20;99.90;;;;;;5137941;27;20115;-77
2022/01/13 00:44:19;;;;;;;3.42;3.13;;;4.20;99.90;;;;;;5156049;27;20121;-76
2022/01/13 00:46:47;;;;;;;0.90;0.90;;;4.20;99.90;;;;;;5155652;27;20506;-76
2022/01/13 00:49:14;;;;;;;4.25;3.90;;;4.20;99.90;;;;;;5138064;27;20431;-76
2022/01/13 00:51:40;;;;;;;;;;;4.20;99.90;;;;;;5156396;27;20043;-75
2022/01/13 00:54:07;;;;;;;1.48;1.38;;;4.20;99.90;;;;;;5137514;27;19923;-76
2022/01/13 00:56:34;;;;;;;0.50;0.50;;;4.20;99.90;;;;;;5155913;27;20051;-76
2022/01/13 00:59:03;;;;;;;2.75;2.55;;;4.20;99.90;;;;;;5155612;27;20053;-76
2022/01/13 01:01:29;;;;;;;1.88;1.70;;;4.30;99.90;;;;;;5155830;27;20398;-76
2022/01/13 01:03:54;;;;;;;0.60;0.60;;;4.20;99.90;;;;;;5155818;27;20050;-76
2022/01/13 01:06:20;;;;;;;0.50;0.50;;;4.30;99.90;;;;;;5155780;27;20094;-76
2022/01/13 01:08:46;;;;;;;2.28;2.08;;;4.30;99.90;;;;;;5137532;27;20042;-76
2022/01/13 01:11:12;;;;;;;0.60;0.60;;;4.30;99.90;;;;;;5155650;27;20035;-76
2022/01/13 01:13:39;;;;;;;1.25;1.15;;;4.30;99.90;;;;;;5155612;27;20050;-77
2022/01/13 01:16:08;;;;;;;3.80;3.42;;;4.30;99.90;;;;;;5155611;27;20047;-76
2022/01/13 01:29:14;;;;;;;0.70;0.70;;;4.40;99.90;;;;;;5155986;27;20051;-76
2022/01/13 01:31:46;;;;;;;0.60;0.60;;;4.40;99.90;;;;;;5137292;27;20478;-76
2022/01/13 01:36:44;;;;;;;1.25;1.05;;;4.50;99.90;;;;;;5155933;27;20051;-77
2022/01/13 01:39:10;;;;;;;1.02;1.00;;;4.40;99.90;;;;;;5155386;27;20042;-76
2022/01/13 01:41:42;;;;;;;3.63;3.20;;;4.40;99.90;;;;;;5155342;27;20039;-76
2022/01/13 01:44:09;;;;;;;2.10;1.25;;;4.50;99.90;;;;;;5136960;27;20064;-77
2022/01/13 01:46:38;;;;;;;1.08;0.90;;;4.40;99.90;;;;;;5155059;27;20051;-76
2022/01/13 01:49:08;;;;;;;7.43;1.70;;;4.40;99.90;;;;;;5136903;27;20051;-76
2022/01/13 01:51:33;;;;;;;1.33;1.08;;;4.40;99.90;;;;;;5155331;27;20082;-76
2022/01/13 01:53:59;;;;;;;1.20;1.10;;;4.90;99.90;;;;;;5155220;27;20042;-77
2022/01/13 01:56:25;;;;;;;0.60;0.60;;;4.50;99.90;;;;;;5155200;27;20047;-77
2022/01/13 01:58:50;;;;;;;0.57;0.57;;;4.50;99.90;;;;;;5137187;27;20045;-77
2022/01/13 02:01:16;;;;;;;9.65;5.35;;;4.50;99.90;;;;;;5136947;27;20057;-76
2022/01/13 02:03:42;;;;;;;1.40;1.30;;;4.50;99.90;;;;;;5155075;27;20038;-77
2022/01/13 02:06:07;;;;;;;1.75;1.55;;;4.50;99.90;;;;;;5136564;27;20058;-77
2022/01/13 02:08:33;;;;;;;0.82;0.82;;;4.50;99.90;;;;;;5155508;27;20050;-77
2022/01/13 02:10:59;;;;;;;0.70;0.70;;;4.60;99.90;;;;;;5136649;27;20043;-77
2022/01/13 02:13:33;;;;;;;5.55;4.38;;;4.50;99.90;;;;;;5119685;27;20051;-76
2022/01/13 02:16:02;;;;;;;0.60;0.60;;;4.60;99.90;;;;;;5120836;27;20042;-76
2022/01/13 02:18:32;;;;;;;2.55;2.35;;;4.60;99.90;;;;;;5136776;27;20045;-77
2022/01/13 02:21:00;;;;;;;0.90;0.90;;;4.60;99.90;;;;;;5155661;27;20034;-76
2022/01/13 02:23:39;;;;;;;0.88;0.88;;;4.60;99.90;;;;;;5154997;27;20043;-77
2022/01/13 02:26:08;;;;;;;1.10;1.10;;;4.60;99.90;;;;;;5136855;27;20035;-76
2022/01/13 02:28:35;;;;;;;0.70;0.70;;;4.60;99.90;;;;;;5136686;27;20482;-76
2022/01/13 02:31:02;;;;;;;2.70;2.45;;;4.60;99.90;;;;;;5154815;27;20125;-77
2022/01/13 02:33:28;;;;;;;0.70;0.70;;;4.70;99.90;;;;;;5158730;27;20130;-76
2022/01/13 02:35:54;;;;;;;0.60;0.60;;;4.70;99.90;;;;;;5140590;27;20151;-77
2022/01/13 02:38:20;;;;;;;1.77;1.67;;;5.00;99.90;;;;;;5140462;27;20047;-77
2022/01/13 02:40:55;;;;;;;1.02;1.02;;;4.70;99.90;;;;;;5158636;27;20084;-77
2022/01/13 02:43:21;;;;;;;0.80;0.80;;;4.70;99.90;;;;;;5158503;27;20440;-77
2022/01/13 02:46:31;;;;;;;1.13;1.03;;;4.70;99.90;;;;;;5158258;27;20558;-77
2022/01/13 02:48:36;;;;;;;0.60;0.60;;;4.70;99.90;;;;;;5147113;27;20410;-76
2022/01/13 02:51:03;;;;;;;0.80;0.80;;;4.70;99.90;;;;;;5158364;27;20035;-77
2022/01/13 02:53:29;;;;;;;2.10;1.95;;;4.70;99.90;;;;;;5158291;27;20046;-77
2022/01/13 02:56:01;;;;;;;1.08;1.05;;;4.70;99.90;;;;;;5157863;27;20482;-77
2022/01/13 02:58:26;;;;;;;1.20;0.93;;;4.70;99.90;;;;;;5158926;27;20071;-77
2022/01/13 03:00:52;;;;;;;1.45;1.20;;;4.70;99.90;;;;;;5140100;27;20413;-76
2022/01/13 03:03:19;;;;;;;1.25;1.15;;;4.70;99.90;;;;;;5140118;27;20435;-76
2022/01/13 03:05:44;;;;;;;1.40;1.30;;;4.70;99.90;;;;;;5158147;27;20055;-76
2022/01/13 03:08:10;;;;;;;0.60;0.60;;;4.80;99.90;;;;;;5122749;27;20049;-78
2022/01/13 03:10:36;;;;;;;0.60;0.60;;;4.80;99.90;;;;;;5157927;27;20039;-77
2022/01/13 03:13:03;;;;;;;0.60;0.60;;;4.70;99.90;;;;;;5157992;27;20436;-76
2022/01/13 03:15:28;;;;;;;0.70;0.70;;;4.70;99.90;;;;;;5140220;27;20394;-77
2022/01/13 03:17:54;;;;;;;3.30;0.90;;;4.70;99.90;;;;;;5158066;27;20045;-76
2022/01/13 03:20:20;;;;;;;0.70;0.70;;;4.70;99.90;;;;;;5139316;27;20047;-76
2022/01/13 03:22:45;;;;;;;0.50;0.50;;;4.80;99.90;;;;;;5157764;27;20046;-77
2022/01/13 03:25:12;;;;;;;0.70;0.70;;;4.80;99.90;;;;;;5139430;27;20038;-77
2022/01/13 03:27:40;;;;;;;1.02;0.93;;;4.90;99.90;;;;;;5157813;27;20394;-77
2022/01/13 03:30:08;;;;;;;2.22;2.05;;;4.80;99.90;;;;;;5139109;27;20035;-77
2022/01/13 03:32:35;;;;;;;3.80;2.65;;;4.80;99.90;;;;;;5139365;27;20054;-77
2022/01/13 03:35:01;;;;;;;0.73;0.73;;;4.70;99.90;;;;;;5139289;27;20171;-76
2022/01/13 03:37:28;;;;;;;1.02;1.02;;;4.70;99.90;;;;;;5157610;27;20394;-76
2022/01/13 03:39:54;;;;;;;0.98;0.90;;;4.80;99.90;;;;;;5139094;27;20363;-77
2022/01/13 03:42:20;;;;;;;1.20;1.15;;;4.80;99.90;;;;;;5121643;27;20042;-76
2022/01/13 03:44:45;;;;;;;0.60;0.60;;;4.80;99.90;;;;;;5156753;27;20047;-77
2022/01/13 03:47:13;;;;;;;1.83;1.73;;;4.70;99.90;;;;;;5139236;27;20125;-77
2022/01/13 03:49:39;;;;;;;1.15;1.05;;;4.70;99.90;;;;;;5157143;27;20088;-76
2022/01/13 03:52:36;;;;;;;0.80;0.80;;;4.70;99.90;;;;;;5157268;27;20494;-77
2022/01/13 03:55:30;;;;;;;0.88;0.88;;;4.70;99.90;;;;;;5157140;27;20095;-78
2022/01/13 03:58:29;;;;;;;0.70;0.70;;;4.70;99.90;;;;;;5138987;27;20034;-77
2022/01/13 04:01:41;;;;;;;0.95;0.95;;;4.70;99.90;;;;;;5138698;27;20047;-76
2022/01/13 04:04:06;;;;;;;0.68;0.68;;;4.70;99.90;;;;;;5138841;27;20053;-77
2022/01/13 04:06:40;;;;;;;0.70;0.70;;;4.70;99.90;;;;;;5156945;27;20125;-76
2022/01/13 04:09:19;;;;;;;0.50;0.50;;;4.70;99.90;;;;;;5138503;27;20085;-77
2022/01/13 04:11:45;;;;;;;3.33;1.73;;;4.60;99.90;;;;;;5138384;27;20045;-77
2022/01/13 04:14:10;;;;;;;2.67;2.47;;;4.70;99.90;;;;;;5138594;27;20471;-77
2022/01/13 04:16:37;;;;;;;0.82;0.82;;;4.70;99.90;;;;;;5138311;27;20072;-77
2022/01/13 04:19:05;;;;;;;2.40;2.25;;;4.70;99.90;;;;;;5138521;27;20057;-77
2022/01/13 04:21:32;;;;;;;0.75;0.75;;;4.70;99.90;;;;;;5138383;27;20049;-76
2022/01/13 04:23:59;;;;;;;0.50;0.50;;;4.60;99.90;;;;;;5156924;27;20085;-77
2022/01/13 04:26:30;;;;;;;0.80;0.80;;;4.70;99.90;;;;;;5138141;27;20542;-78
2022/01/13 04:29:16;;;;;;;0.70;0.70;;;4.70;99.90;;;;;;5138506;27;20125;-78
2022/01/13 04:31:45;;;;;;;0.82;0.80;;;4.60;99.90;;;;;;5156403;27;20078;-76
2022/01/13 04:34:11;;;;;;;0.80;0.80;;;4.70;99.90;;;;;;5156110;27;20114;-77
2022/01/13 04:36:37;;;;;;;0.68;0.68;;;4.60;99.90;;;;;;5137802;27;20050;-76
2022/01/13 04:39:05;;;;;;;0.60;0.60;;;4.60;99.90;;;;;;5138060;27;20479;-78
2022/01/13 04:41:36;;;;;;;1.88;1.77;;;4.60;99.90;;;;;;5138069;27;20049;-77
2022/01/13 04:44:10;;;;;;;3.08;2.63;;;4.60;99.90;;;;;;5156139;27;20050;-77
2022/01/13 04:46:36;;;;;;;0.73;0.73;;;4.60;99.90;;;;;;5120686;27;20107;-77
2022/01/13 04:49:03;;;;;;;0.50;0.50;;;4.60;99.90;;;;;;5156077;27;20367;-77
2022/01/13 04:51:29;;;;;;;3.80;2.35;;;4.60;99.90;;;;;;5155950;27;20042;-77
2022/01/13 04:53:54;;;;;;;0.50;0.50;;;4.60;99.90;;;;;;5155913;27;20034;-77
2022/01/13 04:57:06;;;;;;;5.38;1.48;;;4.60;99.90;;;;;;5137737;27;20055;-77
2022/01/13 04:59:10;;;;;;;0.60;0.60;;;4.50;99.90;;;;;;5129826;27;20123;-77
2022/01/13 05:01:37;;;;;;;0.70;0.70;;;4.60;99.90;;;;;;5137441;27;20457;-77
2022/01/13 05:04:03;;;;;;;0.60;0.60;;;4.60;99.90;;;;;;5137827;27;20051;-77
2022/01/13 05:06:28;;;;;;;0.87;0.87;;;4.50;99.90;;;;;;5120678;27;20054;-77
2022/01/13 05:08:54;;;;;;;1.45;1.35;;;4.60;99.90;;;;;;5156087;27;20042;-77
2022/01/13 05:11:23;;;;;;;0.77;0.70;;;4.50;99.90;;;;;;5155608;27;20146;-78
2022/01/13 05:13:49;;;;;;;0.60;0.60;;;4.50;99.90;;;;;;5136905;27;20047;-77
2022/01/13 05:16:23;;;;;;;1.80;1.70;;;4.50;99.90;;;;;;5137587;27;20410;-77
2022/01/13 05:23:46;;;;;;;0.90;0.88;;;4.50;99.90;;;;;;5155823;27;20051;-76
2022/01/13 05:26:12;;;;;;;1.05;1.05;;;4.50;99.90;;;;;;5155454;27;20043;-78
2022/01/13 05:28:40;;;;;;;1.00;1.00;;;4.50;99.90;;;;;;5136765;27;20043;-78
2022/01/13 05:31:06;;;;;;;0.60;0.60;;;4.50;99.90;;;;;;5137239;27;20043;-77
2022/01/13 05:33:32;;;;;;;0.93;0.93;;;4.50;99.90;;;;;;5155473;27;20050;-76
2022/01/13 05:35:58;;;;;;;0.60;0.60;;;4.50;99.90;;;;;;5155404;27;20043;-77
2022/01/13 05:38:24;;;;;;;0.60;0.60;;;4.50;99.90;;;;;;5137493;27;20422;-77
2022/01/13 05:40:49;;;;;;;0.60;0.60;;;4.50;99.90;;;;;;5155444;27;20074;-77
2022/01/13 05:43:15;;;;;;;1.00;0.98;;;4.50;99.90;;;;;;5155366;27;20045;-76
2022/01/13 05:45:40;;;;;;;0.55;0.55;;;4.50;99.90;;;;;;5155774;27;20054;-77
2022/01/13 05:48:07;;;;;;;1.10;0.95;;;4.40;99.90;;;;;;5136871;27;20586;-76
2022/01/13 05:50:33;;;;;;;1.15;1.05;;;4.50;99.90;;;;;;5136821;27;20506;-79
2022/01/13 05:52:59;;;;;;;0.52;0.52;;;4.50;99.90;;;;;;5137009;27;20168;-78
2022/01/13 05:55:26;;;;;;;1.77;1.67;;;4.50;99.90;;;;;;5155111;27;20038;-77
2022/01/13 05:57:51;;;;;;;0.65;0.65;;;4.40;99.90;;;;;;5155157;27;20280;-78
2022/01/13 06:00:19;;;;;;;0.70;0.70;;;4.50;99.90;;;;;;5155191;27;20057;-78
2022/01/13 06:02:46;;;;;;;0.52;0.52;;;4.70;99.90;;;;;;5155264;27;20100;-78
2022/01/13 06:05:13;;;;;;;0.85;0.85;;;4.50;99.90;;;;;;5155109;27;20050;-76
2022/01/13 06:07:38;;;;;;;0.95;0.95;;;4.40;99.90;;;;;;5139553;27;20047;-77
2022/01/13 06:10:06;;;;;;;1.25;1.20;;;4.50;99.90;;;;;;5158996;27;20496;-78
2022/01/13 06:12:32;;;;;;;0.60;0.60;;;4.40;99.90;;;;;;5140974;27;20055;-76
2022/01/13 06:15:07;;;;;;;0.60;0.60;;;4.40;99.90;;;;;;5159584;27;20072;-78
2022/01/13 06:17:33;;;;;;;0.55;0.55;;;4.40;99.90;;;;;;5159157;27;20046;-78
2022/01/13 06:19:59;;;;;;;0.75;0.75;;;4.50;99.90;;;;;;5158827;27;20035;-77
2022/01/13 06:22:25;;;;;;;0.60;0.60;;;4.50;99.90;;;;;;5158865;27;20058;-78
2022/01/13 06:24:52;;;;;;;0.90;0.88;;;4.50;99.90;;;;;;5158945;27;20132;-79
2022/01/13 06:27:18;;;;;;;1.02;1.02;;;4.50;99.90;;;;;;5158938;27;20042;-78
2022/01/13 06:29:44;;;;;;;0.50;0.50;;;4.40;99.90;;;;;;5159231;27;20099;-78
2022/01/13 06:32:10;;;;;;;0.60;0.60;;;4.40;99.90;;;;;;5140992;27;20034;-80
2022/01/13 06:34:35;;;;;;;0.70;0.70;;;4.40;99.90;;;;;;5140680;27;20074;-81
2022/01/13 06:37:01;;;;;;;0.60;0.60;;;4.60;99.90;;;;;;5158738;27;20034;-80
2022/01/13 06:39:27;;;;;;;0.73;0.68;;;4.40;99.90;;;;;;5123062;27;20476;-77
2022/01/13 06:41:52;;;;;;;0.60;0.60;;;4.60;99.90;;;;;;5140318;27;20058;-78
2022/01/13 06:44:18;;;;;;;0.95;0.95;;;4.30;99.90;;;;;;5140120;27;20086;-78
2022/01/13 06:46:43;;;;;;;0.60;0.60;;;4.40;99.90;;;;;;5140431;27;20053;-80
2022/01/13 06:49:09;;;;;;;0.80;0.80;;;4.40;99.90;;;;;;5123155;27;20191;-78
2022/01/13 06:51:34;;;;;;;0.70;0.70;;;4.40;99.90;;;;;;5140069;27;20061;-80
2022/01/13 06:54:00;;;;;;;0.60;0.60;;;4.40;99.90;;;;;;5123062;27;20071;-79
2022/01/13 06:56:26;;;;;;;0.60;0.60;;;4.30;99.90;;;;;;5158331;27;20039;-78
2022/01/13 06:58:53;;;;;;;0.70;0.70;;;4.30;99.90;;;;;;5158062;27;20471;-79
2022/01/13 07:01:21;;;;;;;0.88;0.85;;;4.50;99.90;;;;;;5139905;27;20491;-79
2022/01/13 07:03:47;;;;;;;0.70;0.70;;;4.40;99.90;;;;;;5140300;27;20054;-77
2022/01/13 07:06:12;;;;;;;0.80;0.80;;;4.40;99.90;;;;;;5158273;27;20042;-77
2022/01/13 07:08:38;;;;;;;1.35;1.23;;;4.30;99.90;;;;;;5158068;27;20401;-78
2022/01/13 07:11:04;;;;;;;0.60;0.60;;;4.30;99.90;;;;;;5157986;27;20030;-79
2022/01/13 07:13:31;;;;;;;0.60;0.60;;;4.40;99.90;;;;;;5158061;27;20043;-77
2022/01/13 07:15:58;;;;;;;;;;;4.40;99.90;;;;;;5158428;27;20051;-78
2022/01/13 07:18:24;;;;;;;0.60;0.60;;;4.30;99.90;;;;;;5139562;27;19971;-77
2022/01/13 07:20:49;;;;;;;0.70;0.70;;;4.30;99.90;;;;;;5157868;27;20054;-78
2022/01/13 07:23:15;;;;;;;1.50;1.42;;;4.30;99.90;;;;;;5139643;27;20051;-77
2022/01/13 07:25:41;;;;;;;0.60;0.60;;;4.30;99.90;;;;;;5157694;27;20042;-78
2022/01/13 07:28:06;;;;;;;0.80;0.80;;;4.30;99.90;;;;;;5139384;27;20042;-78
2022/01/13 07:30:34;;;;;;;0.95;0.95;;;4.40;99.90;;;;;;5139799;27;20088;-79
2022/01/13 07:32:59;;;;;;;0.80;0.80;;;4.30;99.90;;;;;;5157452;27;20038;-77
2022/01/13 07:35:26;;;;;;;3.75;2.65;;;4.40;99.90;;;;;;5156835;27;20039;-78
2022/01/13 07:37:51;;;;;;;7.90;2.20;;;4.40;99.90;;;;;;5139472;27;20043;-80
2022/01/13 07:40:17;;;;;;;2.28;2.08;;;4.40;99.90;;;;;;5157504;27;20095;-77
2022/01/13 07:42:46;;;;;;;0.50;0.50;;;4.40;99.90;;;;;;5158268;27;20432;-76
2022/01/13 07:45:13;;;;;;;0.50;0.50;;;4.30;99.90;;;;;;5157251;27;20280;-77
2022/01/13 07:47:38;;;;;;;0.57;0.57;;;4.30;99.90;;;;;;5138562;27;20145;-77
2022/01/13 07:50:06;;;;;;;0.70;0.70;;;4.30;99.90;;;;;;5157201;27;20545;-77
2022/01/13 07:52:32;;;;;;;1.55;1.45;;;4.40;99.90;;;;;;5157144;27;20046;-77
2022/01/13 07:54:58;;;;;;;0.80;0.80;;;4.30;99.90;;;;;;5157144;27;20044;-76
2022/01/13 07:57:23;;;;;;;0.70;0.70;;;4.80;99.90;;;;;;5138654;27;20046;-79
2022/01/13 07:59:49;;;;;;;0.50;0.50;;;4.40;99.90;;;;;;5138919;27;20054;-77
2022/01/13 08:02:15;;;;;;;0.93;0.93;;;4.40;99.90;;;;;;5156654;27;20039;-80
2022/01/13 08:04:40;;;;;;;1.33;1.23;;;4.40;99.90;;;;;;5138908;27;20060;-76
2022/01/13 08:07:06;;;;;;;0.60;0.60;;;4.40;99.90;;;;;;5157032;27;20049;-77
2022/01/13 08:09:31;;;;;;;0.65;0.65;;;4.40;99.90;;;;;;5138598;27;20479;-76
2022/01/13 08:11:57;;;;;;;0.60;0.60;;;4.40;99.90;;;;;;5156775;27;20042;-77
2022/01/13 08:14:22;;;;;;;1.58;0.95;;;4.40;99.90;;;;;;5156600;27;20100;-76
2022/01/13 08:16:50;;;;;;;2.05;1.95;;;4.40;99.90;;;;;;5156774;27;20054;-77
2022/01/13 08:21:59;;;;;;;0.60;0.60;;;4.40;99.90;;;;;;5156557;27;20043;-75
2022/01/13 08:24:25;;;;;;;0.70;0.70;;;4.40;99.90;;;;;;5156604;27;20042;-77
2022/01/13 08:26:50;;;;;;;0.80;0.80;;;4.90;99.90;;;;;;5156495;27;20517;-77
2022/01/13 08:29:16;;;;;;;1.58;1.48;;;4.50;99.90;;;;;;5156478;27;20046;-77
2022/01/13 08:31:42;;;;;;;0.50;0.50;;;4.50;99.90;;;;;;5156301;27;20468;-77
2022/01/13 08:34:07;;;;;;;0.93;0.93;;;4.50;99.90;;;;;;5156701;27;20364;-80
2022/01/13 08:36:33;;;;;;;0.60;0.60;;;4.50;99.90;;;;;;5138197;27;20038;-79
2022/01/13 08:38:59;;;;;;;10.15;2.83;;;4.60;99.90;;;;;;5156130;27;20047;-77
2022/01/13 08:41:27;;;;;;;0.60;0.60;;;4.50;99.90;;;;;;5138239;27;20049;-80
2022/01/13 08:43:53;;;;;;;0.70;0.60;;;4.50;99.90;;;;;;5138044;27;20038;-78
2022/01/13 08:46:19;;;;;;;0.65;0.65;;;4.60;99.90;;;;;;5156216;27;20054;-76
2022/01/13 08:48:44;;;;;;;2.60;1.58;;;4.60;99.90;;;;;;5155683;27;20500;-78
2022/01/13 08:51:10;;;;;;;0.70;0.70;;;4.60;99.90;;;;;;5156065;27;20121;-76
2022/01/13 08:53:38;;;;;;;0.60;0.60;;;4.60;99.90;;;;;;5155958;27;20439;-76
2022/01/13 08:56:04;;;;;;;0.90;0.90;;;4.60;99.90;;;;;;5155915;27;20042;-76
2022/01/13 08:58:30;;;;;;;1.83;1.53;;;4.60;99.90;;;;;;5156020;27;20039;-74
2022/01/13 09:00:56;;;;;;;1.67;1.58;;;;;;;;;;5155834;27;20037;-75
2022/01/13 09:03:22;;;;;;;0.60;0.60;;;4.60;99.90;;;;;;5137160;27;20047;-77
2022/01/13 09:05:48;;;;;;;0.70;0.70;;;4.60;99.90;;;;;;5137699;27;20042;-77
2022/01/13 09:08:14;;;;;;;0.85;0.85;;;4.70;99.90;;;;;;5137427;27;20038;-76
2022/01/13 09:10:41;;;;;;;0.60;0.60;;;4.70;99.90;;;;;;5137279;27;20371;-75
2022/01/13 09:13:11;;;;;;;0.60;0.60;;;4.70;99.90;;;;;;5120181;27;20494;-76
2022/01/13 09:15:39;;;;;;;1.58;1.48;;;4.70;99.90;;;;;;5137494;27;20133;-76
2022/01/13 09:18:17;;;;;;;1.80;1.70;;;4.70;99.90;;;;;;5155710;27;20053;-75
2022/01/13 09:20:43;;;;;;;0.68;0.68;;;4.80;99.90;;;;;;5155279;27;20590;-76
2022/01/13 09:23:09;;;;;;;0.90;0.90;;;4.70;99.90;;;;;;5119978;27;20057;-78
2022/01/13 09:25:35;;;;;;;0.60;0.60;;;4.70;99.90;;;;;;5137315;27;20478;-78
2022/01/13 09:28:03;;;;;;;0.60;0.60;;;4.80;99.90;;;;;;5120443;27;20049;-76
2022/01/13 09:30:29;;;;;;;0.68;0.68;;;4.80;99.90;;;;;;5137203;27;20046;-78
2022/01/13 09:32:54;;;;;;;0.60;0.60;;;4.80;99.90;;;;;;5155584;27;20047;-79
2022/01/13 09:35:20;;;;;;;0.60;0.60;;;4.80;99.90;;;;;;5137269;27;20378;-78
2022/01/13 09:37:46;;;;;;;0.88;0.88;;;4.80;99.90;;;;;;5155843;27;20129;-78
2022/01/13 09:40:13;;;;;;;0.80;0.70;;;5.10;99.90;;;;;;5137256;27;20082;-77
2022/01/13 09:42:40;;;;;;;2.05;0.98;;;4.90;99.90;;;;;;5158401;27;20125;-78
2022/01/13 09:45:07;;;;;;;1.90;1.60;;;4.90;99.90;;;;;;5159712;27;20042;-77
2022/01/13 09:47:35;;;;;;;1.40;1.30;;;4.90;99.90;;;;;;5159806;27;20050;-77
2022/01/13 09:50:04;;;;;;;0.70;0.70;;;4.90;99.90;;;;;;5141304;27;20049;-77
2022/01/13 09:52:30;;;;;;;1.15;1.13;;;4.90;99.90;;;;;;5141256;27;20047;-77
2022/01/13 09:54:56;;;;;;;1.00;1.00;;;4.90;99.90;;;;;;5141056;27;20182;-77
2022/01/13 09:57:21;;;;;;;1.13;0.77;;;5.00;99.90;;;;;;5141301;27;20087;-78
2022/01/13 09:59:47;;;;;;;0.95;0.95;;;5.00;99.90;;;;;;5124214;27;20046;-77
2022/01/13 10:02:13;;;;;;;2.05;1.65;;;5.00;99.90;;;;;;5159472;27;20535;-77
2022/01/13 10:04:48;;;;;;;2.25;1.95;;;5.00;99.90;;;;;;5123485;27;20115;-77
2022/01/13 10:07:18;;;;;;;1.20;0.82;;;5.00;99.90;;;;;;5159194;27;20046;-76
2022/01/13 10:09:56;;;;;;;0.80;0.80;;;5.00;99.90;;;;;;5158755;27;20046;-77
2022/01/13 10:12:40;;;;;;;1.33;1.25;;;5.10;99.90;;;;;;5159161;27;20039;-78
2022/01/13 10:17:49;;;;;;;0.60;0.60;;;5.10;99.90;;;;;;5159058;27;20073;-77
2022/01/13 10:20:17;;;;;;;2.80;2.60;;;5.10;99.90;;;;;;5159238;27;20045;-76
2022/01/13 10:22:44;;;;;;;0.50;0.50;;;5.10;99.90;;;;;;5158909;27;20046;-76
2022/01/13 10:25:25;;;;;;;1.10;1.00;;;5.10;99.90;;;;;;5140451;27;20043;-76
2022/01/13 10:27:51;;;;;;;0.70;0.70;;;5.10;99.90;;;;;;5158880;27;20078;-76
2022/01/13 10:30:18;;;;;;;0.60;0.60;;;5.10;99.90;;;;;;5158838;27;20078;-75
2022/01/13 10:32:45;;;;;;;;;;;5.10;99.90;;;;;;5159266;27;20039;-74
2022/01/13 10:35:21;;;;;;;0.98;0.93;;;5.10;99.90;;;;;;5158857;27;20017;-76
2022/01/13 10:37:56;;;;;;;1.05;0.73;;;5.40;99.90;;;;;;5140370;27;20122;-77
2022/01/13 10:40:31;;;;;;;0.60;0.60;;;5.10;99.90;;;;;;5158695;27;20083;-78
2022/01/13 10:45:32;;;;;;;1.05;0.95;;;5.20;99.90;;;;;;5158870;27;20105;-75
2022/01/13 10:48:04;;;;;;;0.68;0.68;;;5.10;99.90;;;;;;5140173;27;20129;-76
2022/01/13 10:50:36;;;;;;;0.60;0.60;;;5.20;99.90;;;;;;5158390;27;20038;-74
2022/01/13 10:53:05;;;;;;;1.50;1.40;;;5.30;99.90;;;;;;5157999;27;20397;-73
2022/01/13 10:55:34;;;;;;;1.80;1.70;;;5.40;99.90;;;;;;5158328;27;20470;-74
2022/01/13 10:58:00;;;;;;;0.60;0.60;;;5.40;99.90;;;;;;5158265;27;20038;-76
2022/01/13 11:00:28;;;;;;;0.60;0.60;;;5.40;99.90;;;;;;5158357;27;20106;-75
2022/01/13 11:03:17;;;;;;;0.70;0.70;;;5.40;99.90;;;;;;5158391;27;20084;-77
2022/01/13 11:05:51;;;;;;;0.70;0.70;;;5.40;99.90;;;;;;5158803;27;20060;-76
2022/01/13 11:08:40;;;;;;;1.15;1.05;;;5.40;99.90;;;;;;5143020;27;20089;-76
2022/01/13 11:11:06;;;;;;;0.77;0.77;;;5.50;99.90;;;;;;5139531;27;20035;-76
2022/01/13 11:13:39;;;;;;;0.60;0.60;;;5.40;99.90;;;;;;5139480;27;20071;-75
2022/01/13 11:16:05;;;;;;;1.15;0.88;;;5.60;99.90;;;;;;5158405;27;20482;-77
2022/01/13 11:18:33;;;;;;;0.68;0.68;;;5.40;99.90;;;;;;5157912;27;20103;-77
2022/01/13 11:20:59;;;;;;;12.57;4.88;;;5.40;99.90;;;;;;5139655;27;20117;-76
2022/01/13 11:23:25;;;;;;;0.70;0.70;;;5.40;99.90;;;;;;5139662;27;20046;-75
2022/01/13 11:25:54;;;;;;;1.50;1.40;;;5.40;99.90;;;;;;5139579;27;20077;-75
2022/01/13 11:28:20;;;;;;;1.48;1.13;;;5.40;99.90;;;;;;5139442;27;20046;-76
2022/01/13 11:30:49;;;;;;;0.60;0.60;;;5.40;99.90;;;;;;5157637;27;20031;-77
2022/01/13 11:33:16;;;;;;;1.10;1.02;;;5.40;99.90;;;;;;5157650;27;20046;-76
2022/01/13 11:35:48;;;;;;;1.17;1.08;;;5.40;99.90;;;;;;5139081;27;20493;-75
2022/01/13 11:38:16;;;;;;;0.90;0.90;;;5.40;99.90;;;;;;5139007;27;20045;-75
2022/01/13 11:40:48;;;;;;;2.40;1.52;;;5.40;99.90;;;;;;5157354;27;20057;-76
2022/01/13 11:43:33;;;;;;;0.60;0.60;;;5.40;99.90;;;;;;5157483;27;20049;-75
2022/01/13 11:46:31;;;;;;;1.35;1.25;;;5.40;99.90;;;;;;5122250;27;20043;-76
2022/01/13 11:49:07;;;;;;;1.15;0.85;;;5.40;99.90;;;;;;5100006;27;20051;-78
2022/01/13 11:51:45;;;;;;;1.98;1.77;;;5.40;99.90;;;;;;5136246;27;20066;-77
2022/01/13 11:54:23;;;;;;;;;;;5.30;99.90;;;;;;5127487;27;20070;-79
2022/01/13 11:57:08;;;;;;;0.90;0.90;;;5.30;99.90;;;;;;5096238;27;19923;-76
2022/01/13 11:59:34;;;;;;;0.85;0.85;;;5.30;99.90;;;;;;5099563;27;20073;-77
2022/01/13 12:02:42;;;;;;;5.65;0.95;;;5.30;99.90;;;;;;5134495;27;20043;-76
2022/01/13 12:05:14;;;;;;;2.35;0.60;;;5.30;99.90;;;;;;5029507;28;20131;-83
2022/01/13 12:07:53;;;;;;;1.40;1.30;;;5.30;99.90;;;;;;5104500;28;20418;-76
2022/01/13 12:10:24;;;;;;;0.90;0.90;;;5.30;99.90;;;;;;5115281;28;20048;-80
2022/01/13 12:12:51;;;;;;;1.20;1.10;;;5.30;99.90;;;;;;5101352;28;20441;-81
2022/01/13 12:15:21;;;;;;;0.90;0.90;;;5.30;99.90;;;;;;5097518;28;20040;-80
2022/01/13 12:17:54;;;;;;;2.35;2.15;;;5.30;99.90;;;;;;5117239;27;20047;-78
2022/01/13 12:20:40;;;;;;;0.90;0.90;;;5.20;99.90;;;;;;5114307;27;20039;-74
2022/01/13 12:23:17;;;;;;;1.83;1.73;;;5.30;99.90;;;;;;5135580;27;20043;-76
2022/01/13 12:25:44;;;;;;;0.70;0.70;;;5.30;99.90;;;;;;5101401;27;20121;-77
2022/01/13 12:28:14;;;;;;;;;;;5.30;99.90;;;;;;5135429;27;20053;-74
2022/01/13 12:30:40;;;;;;;2.53;1.95;;;5.30;99.90;;;;;;5116340;27;19920;-77
2022/01/13 12:33:07;;;;;;;0.80;0.80;;;5.40;99.90;;;;;;5135075;27;20056;-76
2022/01/13 12:35:39;;;;;;;0.50;0.50;;;5.30;99.90;;;;;;5137179;27;20050;-75
2022/01/13 12:38:17;;;;;;;0.70;0.70;;;5.30;99.90;;;;;;5135948;27;20057;-76
2022/01/13 12:41:03;;;;;;;0.52;0.52;;;5.40;99.90;;;;;;5137432;27;20035;-74
2022/01/13 12:46:22;;;;;;;0.60;0.60;;;5.40;99.90;;;;;;5137832;27;20130;-75
2022/01/13 12:48:53;;;;;;;0.98;0.90;;;5.40;99.90;;;;;;5120368;27;20055;-74
2022/01/13 12:51:24;;;;;;;3.92;2.05;;;5.30;99.90;;;;;;5155832;27;20445;-75
2022/01/13 12:53:50;;;;;;;2.80;1.75;;;5.30;99.90;;;;;;5155945;27;20409;-75
2022/01/13 12:56:18;;;;;;;4.80;3.38;;;5.40;99.90;;;;;;5156006;27;20493;-78
2022/01/13 12:58:54;;;;;;;0.50;0.50;;;5.30;99.90;;;;;;5155913;27;20447;-77
2022/01/13 13:01:31;;;;;;;1.25;1.15;;;5.40;99.90;;;;;;5137426;27;20045;-77
2022/01/13 13:03:57;;;;;;;1.88;1.70;;;5.40;99.90;;;;;;5156037;27;20095;-75
2022/01/13 13:06:23;;;;;;;0.60;0.60;;;5.40;99.90;;;;;;5155714;27;20505;-76
2022/01/13 13:08:49;;;;;;;1.70;1.47;;;5.40;99.90;;;;;;5155442;27;20482;-76
2022/01/13 13:11:15;;;;;;;0.82;0.82;;;5.40;99.90;;;;;;5155645;27;20072;-76
2022/01/13 13:13:45;;;;;;;0.60;0.60;;;5.40;99.90;;;;;;5155738;27;20046;-75
2022/01/13 13:16:12;;;;;;;0.50;0.50;;;5.40;99.90;;;;;;5137786;27;20043;-75
2022/01/13 13:18:38;;;;;;;0.50;0.50;;;5.40;99.90;;;;;;5137321;27;20047;-76
2022/01/13 13:21:06;;;;;;;0.50;0.50;;;5.50;99.90;;;;;;5120075;27;20166;-77
2022/01/13 13:23:35;;;;;;;0.60;0.60;;;5.40;99.90;;;;;;5155314;27;20436;-76
2022/01/13 13:26:06;;;;;;;0.85;0.85;;;5.40;99.90;;;;;;5155154;27;20371;-75
2022/01/13 13:28:37;;;;;;;0.60;0.60;;;5.40;99.90;;;;;;5155350;27;20051;-76
2022/01/13 13:31:08;;;;;;;0.93;0.82;;;5.40;99.90;;;;;;5134824;27;20495;-77
2022/01/13 13:33:37;;;;;;;1.25;1.15;;;5.40;99.90;;;;;;5134214;27;20050;-76
2022/01/13 13:36:05;;;;;;;0.90;0.90;;;5.40;99.90;;;;;;5116068;28;20085;-77
2022/01/13 13:38:31;;;;;;;1.23;1.15;;;5.40;99.90;;;;;;5134321;27;20050;-76
2022/01/13 13:40:57;;;;;;;0.67;0.67;;;5.40;99.90;;;;;;5116231;28;20083;-76
2022/01/13 13:43:31;;;;;;;0.50;0.50;;;5.40;99.90;;;;;;5134052;28;20285;-77